createdAt,value
2018-05-09T00:00:22.904Z,2.80
2018-05-09T00:02:33.999Z,1.70
2018-05-09T00:04:45.086Z,1.90
2018-05-09T00:06:56.167Z,2.73
2018-05-09T00:09:07.206Z,3.30
2018-05-09T00:11:18.281Z,2.00
2018-05-09T00:13:29.374Z,2.43
2018-05-09T00:15:40.546Z,2.40
2018-05-09T00:17:51.762Z,3.17
2018-05-09T00:20:02.839Z,2.90
2018-05-09T00:22:14.078Z,2.63
2018-05-09T00:24:25.130Z,2.67
2018-05-09T00:26:36.209Z,3.10
2018-05-09T00:28:47.295Z,3.03
2018-05-09T00:30:58.418Z,2.80
2018-05-09T00:33:09.539Z,3.13
2018-05-09T00:35:20.653Z,2.87
2018-05-09T00:37:31.753Z,2.70
2018-05-09T00:39:42.812Z,2.67
2018-05-09T00:41:53.902Z,2.37
2018-05-09T00:44:05.006Z,2.80
2018-05-09T00:46:16.086Z,3.10
2018-05-09T00:48:27.182Z,3.13
2018-05-09T00:50:38.268Z,2.90
2018-05-09T00:52:49.367Z,3.27
2018-05-09T00:55:00.522Z,2.80
2018-05-09T00:57:11.607Z,2.90
2018-05-09T00:59:22.715Z,2.87
2018-05-09T01:01:33.781Z,3.03
2018-05-09T01:03:44.857Z,3.47
2018-05-09T01:05:55.954Z,3.20
2018-05-09T01:08:07.038Z,3.23
2018-05-09T01:10:18.449Z,2.80
2018-05-09T01:12:29.501Z,3.23
2018-05-09T01:14:40.755Z,3.20
2018-05-09T01:16:51.857Z,3.47
2018-05-09T01:19:02.962Z,3.50
2018-05-09T01:21:14.054Z,3.47
2018-05-09T01:23:25.144Z,3.47
2018-05-09T01:25:36.334Z,3.60
2018-05-09T01:27:47.377Z,3.53
2018-05-09T01:29:58.528Z,3.63
2018-05-09T01:32:09.606Z,3.30
2018-05-09T01:34:20.874Z,3.53
2018-05-09T01:36:31.978Z,3.47
2018-05-09T01:38:43.045Z,3.57
2018-05-09T01:40:54.135Z,3.07
2018-05-09T01:43:05.232Z,3.60
2018-05-09T01:45:16.334Z,3.60
2018-05-09T01:47:27.417Z,3.40
2018-05-09T01:49:38.585Z,3.40
2018-05-09T01:51:49.651Z,3.67
2018-05-09T01:54:00.789Z,3.83
2018-05-09T01:56:11.842Z,3.37
2018-05-09T01:58:22.913Z,3.30
2018-05-09T02:00:33.973Z,3.30
2018-05-09T02:02:45.130Z,3.40
2018-05-09T02:04:56.255Z,3.23
2018-05-09T02:07:07.417Z,3.17
2018-05-09T02:09:18.585Z,3.63
2018-05-09T02:11:29.663Z,3.77
2018-05-09T02:13:40.918Z,3.60
2018-05-09T02:15:51.969Z,3.53
2018-05-09T02:18:03.018Z,3.73
2018-05-09T02:20:14.097Z,3.90
2018-05-09T02:22:25.179Z,4.07
2018-05-09T02:24:36.411Z,4.20
2018-05-09T02:26:47.470Z,4.20
2018-05-09T02:28:58.574Z,4.10
2018-05-09T02:31:09.727Z,4.17
2018-05-09T02:33:20.701Z,3.87
2018-05-09T02:35:31.794Z,4.40
2018-05-09T02:37:42.886Z,4.30
2018-05-09T02:39:53.982Z,3.80
2018-05-09T02:42:05.066Z,4.27
2018-05-09T02:44:16.206Z,4.47
2018-05-09T02:46:27.299Z,4.10
2018-05-09T02:48:38.551Z,4.60
2018-05-09T02:50:49.646Z,4.70
2018-05-09T02:53:00.759Z,4.40
2018-05-09T02:55:11.806Z,4.13
2018-05-09T02:57:22.899Z,4.40
2018-05-09T02:59:34.004Z,3.87
2018-05-09T03:01:45.162Z,3.97
2018-05-09T03:03:56.314Z,4.53
2018-05-09T03:06:07.403Z,4.10
2018-05-09T03:08:18.594Z,4.60
2018-05-09T03:10:29.668Z,4.80
2018-05-09T03:12:40.758Z,4.80
2018-05-09T03:14:51.839Z,4.30
2018-05-09T03:17:02.954Z,4.87
2018-05-09T03:19:14.010Z,5.03
2018-05-09T03:21:25.131Z,4.67
2018-05-09T03:23:36.221Z,4.77
2018-05-09T03:25:47.319Z,5.43
2018-05-09T03:27:58.444Z,4.70
2018-05-09T03:30:09.553Z,5.10
2018-05-09T03:32:20.630Z,4.63
2018-05-09T03:34:31.703Z,6.50
2018-05-09T03:36:42.850Z,5.00
2018-05-09T03:38:53.970Z,4.80
2018-05-09T03:41:05.142Z,5.77
2018-05-09T03:43:16.150Z,5.20
2018-05-09T03:45:27.217Z,7.47
2018-05-09T03:47:38.264Z,7.60
2018-05-09T03:49:49.357Z,6.67
2018-05-09T03:52:00.522Z,6.10
2018-05-09T03:54:11.590Z,4.87
2018-05-09T03:56:22.846Z,5.00
2018-05-09T03:58:33.909Z,5.80
2018-05-09T04:00:45.034Z,5.97
2018-05-09T04:03:08.448Z,5.13
2018-05-09T04:05:31.785Z,5.20
2018-05-09T04:07:55.193Z,5.17
2018-05-09T04:10:06.326Z,5.53
2018-05-09T04:12:18.294Z,5.33
2018-05-09T04:14:29.481Z,5.57
2018-05-09T04:16:40.638Z,5.23
2018-05-09T04:18:51.692Z,5.13
2018-05-09T04:21:02.782Z,5.33
2018-05-09T04:23:13.906Z,5.83
2018-05-09T04:25:25.026Z,5.60
2018-05-09T04:27:36.074Z,5.67
2018-05-09T04:29:47.162Z,5.20
2018-05-09T04:31:58.300Z,5.20
2018-05-09T04:34:09.469Z,5.83
2018-05-09T04:36:21.223Z,5.60
2018-05-09T04:38:32.283Z,4.97
2018-05-09T04:40:43.514Z,4.93
2018-05-09T04:42:54.596Z,5.70
2018-05-09T04:45:05.682Z,5.83
2018-05-09T04:47:16.844Z,5.50
2018-05-09T04:49:27.874Z,4.73
2018-05-09T04:51:39.065Z,4.80
2018-05-09T04:53:50.154Z,4.93
2018-05-09T04:56:01.261Z,6.40
2018-05-09T04:58:12.499Z,4.00
2018-05-09T05:00:23.612Z,5.57
2018-05-09T05:02:34.710Z,5.90
2018-05-09T05:04:45.838Z,5.60
2018-05-09T05:06:57.019Z,6.77
2018-05-09T05:09:08.078Z,6.20
2018-05-09T05:11:19.189Z,6.50
2018-05-09T05:13:30.315Z,5.40
2018-05-09T05:15:41.427Z,5.30
2018-05-09T05:17:52.507Z,5.30
2018-05-09T05:20:03.586Z,5.33
2018-05-09T05:22:14.723Z,6.30
2018-05-09T05:24:25.814Z,6.07
2018-05-09T05:26:36.968Z,5.93
2018-05-09T05:28:48.077Z,5.90
2018-05-09T05:30:59.214Z,5.03
2018-05-09T05:33:10.302Z,5.70
2018-05-09T05:35:21.563Z,5.57
2018-05-09T05:37:32.724Z,6.60
2018-05-09T05:39:43.851Z,6.90
2018-05-09T05:41:55.011Z,5.60
2018-05-09T05:44:06.122Z,5.27
2018-05-09T05:46:17.225Z,4.87
2018-05-09T05:48:28.308Z,4.87
2018-05-09T05:50:39.492Z,5.07
2018-05-09T05:52:50.627Z,5.40
2018-05-09T05:55:01.769Z,5.33
2018-05-09T05:57:12.881Z,5.30
2018-05-09T05:59:23.966Z,5.90
2018-05-09T06:01:35.112Z,4.90
2018-05-09T06:03:46.165Z,4.83
2018-05-09T06:05:57.307Z,4.77
2018-05-09T06:08:08.398Z,4.60
2018-05-09T06:10:19.465Z,4.57
2018-05-09T06:12:30.606Z,4.57
2018-05-09T06:14:41.782Z,4.20
2018-05-09T06:16:52.985Z,4.63
2018-05-09T06:19:04.062Z,4.47
2018-05-09T06:21:15.198Z,4.20
2018-05-09T06:23:26.298Z,4.53
2018-05-09T06:25:37.385Z,4.60
2018-05-09T06:27:48.486Z,4.20
2018-05-09T06:29:59.562Z,4.20
2018-05-09T06:32:10.687Z,4.07
2018-05-09T06:34:21.760Z,4.50
2018-05-09T06:36:32.854Z,4.00
2018-05-09T06:38:43.950Z,4.60
2018-05-09T06:40:55.073Z,4.20
2018-05-09T06:43:06.154Z,3.40
2018-05-09T06:45:17.219Z,3.60
2018-05-09T06:47:28.310Z,4.30
2018-05-09T06:49:39.459Z,4.57
2018-05-09T06:51:50.490Z,3.90
2018-05-09T06:54:01.626Z,4.27
2018-05-09T06:56:12.705Z,4.60
2018-05-09T06:58:23.827Z,3.53
2018-05-09T07:00:34.910Z,3.83
2018-05-09T07:02:45.993Z,4.07
2018-05-09T07:04:57.143Z,3.70
2018-05-09T07:07:08.246Z,4.50
2018-05-09T07:09:19.452Z,4.03
2018-05-09T07:11:30.525Z,4.33
2018-05-09T07:13:41.663Z,3.90
2018-05-09T07:15:52.754Z,4.20
2018-05-09T07:18:03.806Z,4.60
2018-05-09T07:20:14.887Z,3.90
2018-05-09T07:22:26.062Z,4.07
2018-05-09T07:24:37.215Z,3.83
2018-05-09T07:26:48.354Z,4.00
2018-05-09T07:28:59.545Z,4.17
2018-05-09T07:31:10.596Z,4.40
2018-05-09T07:33:21.766Z,3.93
2018-05-09T07:35:32.871Z,3.50
2018-05-09T07:37:43.977Z,3.80
2018-05-09T07:39:55.054Z,3.70
2018-05-09T07:42:06.205Z,3.73
2018-05-09T07:44:17.306Z,3.67
2018-05-09T07:46:28.490Z,3.70
2018-05-09T07:48:39.625Z,3.10
2018-05-09T07:50:50.707Z,3.17
2018-05-09T07:53:01.882Z,3.30
2018-05-09T07:55:12.995Z,3.60
2018-05-09T07:57:24.054Z,3.50
2018-05-09T07:59:35.166Z,4.00
2018-05-09T08:01:46.270Z,3.57
2018-05-09T08:03:57.358Z,3.43
2018-05-09T08:06:08.645Z,2.80
2018-05-09T08:08:19.675Z,3.07
2018-05-09T08:10:30.793Z,3.00
2018-05-09T08:12:41.905Z,3.30
2018-05-09T08:14:53.066Z,3.90
2018-05-09T08:17:04.145Z,3.50
2018-05-09T08:19:15.206Z,4.13
2018-05-09T08:21:26.342Z,3.20
2018-05-09T08:23:37.534Z,3.77
2018-05-09T08:25:48.677Z,3.23
2018-05-09T08:27:59.764Z,3.90
2018-05-09T08:30:10.930Z,3.83
2018-05-09T08:32:22.130Z,3.50
2018-05-09T08:34:33.189Z,3.17
2018-05-09T08:36:44.362Z,3.40
2018-05-09T08:38:55.362Z,3.60
2018-05-09T08:41:09.116Z,3.50
2018-05-09T08:43:20.341Z,3.93
2018-05-09T08:45:31.321Z,3.33
2018-05-09T08:47:42.442Z,3.33
2018-05-09T08:49:53.523Z,3.43
2018-05-09T08:52:05.422Z,3.60
2018-05-09T08:54:16.546Z,3.87
2018-05-09T08:56:27.699Z,3.70
2018-05-09T08:58:38.826Z,3.90
2018-05-09T09:00:51.005Z,4.07
2018-05-09T09:03:03.127Z,3.97
2018-05-09T09:05:14.246Z,3.40
2018-05-09T09:07:25.317Z,3.83
2018-05-09T09:09:36.461Z,3.80
2018-05-09T09:11:47.519Z,4.20
2018-05-09T09:13:58.692Z,3.27
2018-05-09T09:16:09.760Z,3.13
2018-05-09T09:18:20.843Z,3.40
2018-05-09T09:20:31.963Z,3.87
2018-05-09T09:22:43.027Z,3.77
2018-05-09T09:24:54.193Z,3.60
2018-05-09T09:27:05.280Z,3.77
2018-05-09T09:29:16.458Z,3.87
2018-05-09T09:31:28.274Z,4.13
2018-05-09T09:33:39.361Z,3.77
2018-05-09T09:35:50.463Z,4.47
2018-05-09T09:38:05.159Z,4.00
2018-05-09T09:40:16.286Z,3.97
2018-05-09T09:42:27.376Z,3.67
2018-05-09T09:44:38.517Z,4.27
2018-05-09T09:46:49.607Z,4.30
2018-05-09T09:49:00.662Z,4.60
2018-05-09T09:51:11.751Z,4.27
2018-05-09T09:53:22.846Z,3.93
2018-05-09T09:55:34.819Z,4.30
2018-05-09T09:57:45.934Z,4.20
2018-05-09T09:59:57.062Z,4.30
2018-05-09T10:02:08.167Z,4.17
2018-05-09T10:04:19.262Z,4.73
2018-05-09T10:06:30.407Z,4.97
2018-05-09T10:08:41.477Z,4.30
2018-05-09T10:10:52.622Z,4.70
2018-05-09T10:13:03.853Z,3.67
2018-05-09T10:15:14.967Z,4.50
2018-05-09T10:17:26.173Z,4.13
2018-05-09T10:19:37.241Z,4.23
2018-05-09T10:21:48.390Z,4.90
2018-05-09T10:23:59.465Z,4.47
2018-05-09T10:26:10.557Z,4.80
2018-05-09T10:28:21.717Z,4.47
2018-05-09T10:30:32.807Z,4.80
2018-05-09T10:32:44.041Z,4.73
2018-05-09T10:34:55.170Z,4.80
2018-05-09T10:37:06.300Z,4.70
2018-05-09T10:39:17.402Z,5.07
2018-05-09T10:41:35.244Z,5.10
2018-05-09T10:43:49.603Z,5.57
2018-05-09T10:46:00.694Z,5.20
2018-05-09T10:48:11.761Z,5.00
2018-05-09T10:50:22.889Z,4.30
2018-05-09T10:52:34.066Z,4.50
2018-05-09T10:54:45.180Z,6.30
2018-05-09T10:56:56.258Z,4.20
2018-05-09T10:59:07.326Z,3.60
2018-05-09T11:01:18.461Z,4.83
2018-05-09T11:03:29.543Z,4.57
2018-05-09T11:05:40.696Z,5.30
2018-05-09T11:07:51.799Z,5.10
2018-05-09T11:10:02.914Z,4.47
2018-05-09T11:12:14.084Z,4.70
2018-05-09T11:14:25.199Z,4.57
2018-05-09T11:16:36.320Z,4.07
2018-05-09T11:18:47.399Z,4.03
2018-05-09T11:20:58.666Z,4.50
2018-05-09T11:23:09.738Z,4.57
2018-05-09T11:25:20.831Z,5.03
2018-05-09T11:27:31.938Z,4.53
2018-05-09T11:29:43.029Z,5.40
2018-05-09T11:31:54.166Z,4.40
2018-05-09T11:34:05.258Z,4.43
2018-05-09T11:36:16.386Z,4.60
2018-05-09T11:38:27.511Z,4.93
2018-05-09T11:40:38.747Z,4.60
2018-05-09T11:42:49.826Z,4.93
2018-05-09T11:45:00.907Z,4.00
2018-05-09T11:47:11.997Z,4.27
2018-05-09T11:49:23.134Z,4.50
2018-05-09T11:51:34.254Z,4.53
2018-05-09T11:53:45.403Z,3.83
2018-05-09T11:55:56.654Z,4.47
2018-05-09T11:58:07.778Z,3.80
2018-05-09T12:00:18.980Z,4.63
2018-05-09T12:02:30.181Z,4.43
2018-05-09T12:04:41.264Z,5.00
2018-05-09T12:06:52.377Z,4.17
2018-05-09T12:09:03.488Z,4.70
2018-05-09T12:11:14.637Z,5.17
2018-05-09T12:13:25.758Z,4.03
2018-05-09T12:15:36.941Z,4.87
2018-05-09T12:17:48.054Z,5.30
2018-05-09T12:19:59.147Z,5.37
2018-05-09T12:22:10.315Z,4.13
2018-05-09T12:24:21.379Z,4.83
2018-05-09T12:26:32.515Z,4.87
2018-05-09T12:28:43.566Z,5.00
2018-05-09T12:30:54.742Z,4.90
2018-05-09T12:33:05.819Z,4.47
2018-05-09T12:35:16.924Z,4.70
2018-05-09T12:37:28.063Z,5.20
2018-05-09T12:39:39.231Z,4.90
2018-05-09T12:41:51.355Z,5.90
2018-05-09T12:44:02.494Z,4.67
2018-05-09T12:46:13.633Z,4.60
2018-05-09T12:48:26.159Z,4.17
2018-05-09T12:50:37.174Z,4.93
2018-05-09T12:52:48.314Z,4.80
2018-05-09T12:54:59.406Z,4.70
2018-05-09T12:57:12.590Z,4.43
2018-05-09T12:59:23.677Z,4.93
2018-05-09T13:01:34.830Z,4.53
2018-05-09T13:03:45.894Z,4.10
2018-05-09T13:05:57.090Z,5.30
2018-05-09T13:08:08.185Z,4.33
2018-05-09T13:10:19.315Z,4.80
2018-05-09T13:12:30.422Z,4.57
2018-05-09T13:14:41.570Z,4.57
2018-05-09T13:16:52.664Z,4.13
2018-05-09T13:19:03.750Z,4.70
2018-05-09T13:21:14.893Z,4.27
2018-05-09T13:23:25.958Z,3.43
2018-05-09T13:25:37.162Z,5.00
2018-05-09T13:27:48.234Z,4.27
2018-05-09T13:30:03.110Z,4.03
2018-05-09T13:32:14.177Z,4.30
2018-05-09T13:34:25.350Z,4.30
2018-05-09T13:36:36.539Z,4.70
2018-05-09T13:38:47.649Z,4.50
2018-05-09T13:40:58.815Z,4.33
2018-05-09T13:43:09.921Z,4.80
2018-05-09T13:45:21.018Z,4.10
2018-05-09T13:47:32.125Z,3.83
2018-05-09T13:49:43.197Z,3.90
2018-05-09T13:51:54.405Z,3.40
2018-05-09T13:54:05.404Z,3.43
2018-05-09T13:56:16.490Z,3.77
2018-05-09T13:58:27.655Z,2.87
2018-05-09T14:00:38.858Z,3.50
2018-05-09T14:02:49.959Z,3.83
2018-05-09T14:05:01.063Z,3.23
2018-05-09T14:07:12.214Z,3.37
2018-05-09T14:09:24.246Z,3.60
2018-05-09T14:11:35.313Z,3.50
2018-05-09T14:13:46.400Z,3.77
2018-05-09T14:15:58.355Z,3.30
2018-05-09T14:18:09.733Z,3.60
2018-05-09T14:20:20.934Z,3.60
2018-05-09T14:22:32.035Z,2.93
2018-05-09T14:24:43.154Z,3.00
2018-05-09T14:26:54.223Z,3.17
2018-05-09T14:29:05.334Z,2.80
2018-05-09T14:31:16.433Z,3.20
2018-05-09T14:33:27.566Z,3.50
2018-05-09T14:35:38.677Z,3.80
2018-05-09T14:37:49.735Z,3.30
2018-05-09T14:40:00.811Z,3.10
2018-05-09T14:42:11.933Z,3.30
2018-05-09T14:44:23.050Z,3.77
2018-05-09T14:46:34.230Z,3.33
2018-05-09T14:48:45.292Z,3.17
2018-05-09T14:51:00.158Z,2.50
2018-05-09T14:53:11.272Z,3.13
2018-05-09T14:55:22.321Z,3.53
2018-05-09T14:57:33.460Z,3.50
2018-05-09T14:59:45.506Z,3.03
2018-05-09T15:01:56.620Z,2.27
2018-05-09T15:04:07.788Z,2.97
2018-05-09T15:06:19.011Z,2.53
2018-05-09T15:08:30.197Z,1.80
2018-05-09T15:10:41.251Z,2.60
2018-05-09T15:12:52.341Z,1.77
2018-05-09T15:15:03.477Z,2.57
2018-05-09T15:17:14.589Z,3.30
2018-05-09T15:19:25.706Z,3.20
2018-05-09T15:21:36.771Z,2.37
2018-05-09T15:23:47.875Z,3.30
2018-05-09T15:25:59.106Z,3.00
2018-05-09T15:28:10.241Z,3.20
2018-05-09T15:30:21.351Z,2.93
2018-05-09T15:32:32.460Z,2.60
2018-05-09T15:34:43.561Z,3.00
2018-05-09T15:36:54.654Z,2.77
2018-05-09T15:39:05.818Z,3.00
2018-05-09T15:41:16.869Z,2.40
2018-05-09T15:43:28.037Z,2.33
2018-05-09T15:45:39.235Z,2.83
2018-05-09T15:47:50.314Z,3.30
2018-05-09T15:50:01.486Z,2.83
2018-05-09T15:52:12.554Z,2.70
2018-05-09T15:54:23.634Z,2.20
2018-05-09T15:56:34.727Z,4.03
2018-05-09T15:58:45.882Z,2.27
2018-05-09T16:00:57.124Z,2.63
2018-05-09T16:03:08.274Z,1.93
2018-05-09T16:05:19.383Z,2.90
2018-05-09T16:07:30.562Z,2.60
2018-05-09T16:09:41.660Z,2.30
2018-05-09T16:11:52.800Z,2.80
2018-05-09T16:14:03.951Z,2.70
2018-05-09T16:16:15.034Z,2.80
2018-05-09T16:18:26.139Z,2.30
2018-05-09T16:20:37.230Z,2.70
2018-05-09T16:22:48.313Z,2.50
2018-05-09T16:24:59.494Z,2.90
2018-05-09T16:27:10.597Z,2.57
2018-05-09T16:29:21.869Z,2.37
2018-05-09T16:31:32.965Z,2.73
2018-05-09T16:33:44.077Z,2.97
2018-05-09T16:35:55.154Z,2.67
2018-05-09T16:38:06.230Z,2.70
2018-05-09T16:40:17.374Z,2.50
2018-05-09T16:42:28.463Z,2.40
2018-05-09T16:44:39.681Z,2.90
2018-05-09T16:46:50.758Z,2.77
2018-05-09T16:49:01.951Z,2.50
2018-05-09T16:51:13.097Z,2.43
2018-05-09T16:53:24.250Z,2.90
2018-05-09T16:55:35.334Z,3.03
2018-05-09T16:57:46.425Z,3.17
2018-05-09T16:59:57.621Z,3.27
2018-05-09T17:02:08.794Z,3.30
2018-05-09T17:04:19.950Z,3.10
2018-05-09T17:06:31.057Z,4.03
2018-05-09T17:08:42.193Z,3.27
2018-05-09T17:10:53.323Z,2.80
2018-05-09T17:13:04.489Z,3.13
2018-05-09T17:15:15.549Z,2.67
2018-05-09T17:17:26.670Z,3.30
2018-05-09T17:19:37.814Z,3.10
2018-05-09T17:24:43.110Z,2.90
2018-05-09T17:26:54.230Z,2.87
2018-05-09T17:29:05.333Z,2.20
2018-05-09T17:31:16.410Z,3.37
2018-05-09T17:33:27.536Z,3.70
2018-05-09T17:35:38.654Z,3.90
2018-05-09T17:37:49.873Z,3.57
2018-05-09T17:40:00.941Z,3.57
2018-05-09T17:42:12.094Z,3.63
2018-05-09T17:44:23.178Z,3.17
2018-05-09T17:46:34.259Z,3.80
2018-05-09T17:48:45.454Z,3.83
2018-05-09T17:50:56.537Z,4.00
2018-05-09T17:53:07.623Z,3.67
2018-05-09T17:55:18.709Z,3.80
2018-05-09T17:57:29.831Z,3.43
2018-05-09T17:59:40.912Z,3.40
2018-05-09T18:01:52.066Z,3.53
2018-05-09T18:04:03.359Z,3.03
2018-05-09T18:06:14.474Z,3.10
2018-05-09T18:08:25.734Z,5.43
2018-05-09T18:10:36.827Z,6.00
2018-05-09T18:12:48.010Z,4.00
2018-05-09T18:14:59.200Z,3.33
2018-05-09T18:17:10.339Z,3.87
2018-05-09T18:19:21.658Z,3.70
2018-05-09T18:21:32.834Z,4.10
2018-05-09T18:23:43.977Z,4.10
2018-05-09T18:25:55.166Z,6.50
2018-05-09T18:28:06.505Z,9.57
2018-05-09T18:30:17.637Z,7.53
2018-05-09T18:32:28.738Z,5.40
2018-05-09T18:34:39.853Z,4.80
2018-05-09T18:36:50.942Z,5.47
2018-05-09T18:39:02.138Z,5.90
2018-05-09T18:41:13.255Z,4.87
2018-05-09T18:43:24.407Z,3.80
2018-05-09T18:45:35.824Z,4.43
2018-05-09T18:47:46.924Z,4.13
2018-05-09T18:49:58.106Z,3.67
2018-05-09T18:52:09.209Z,3.90
2018-05-09T18:54:20.334Z,4.93
2018-05-09T18:56:31.456Z,3.97
2018-05-09T18:58:42.546Z,4.13
2018-05-09T19:00:53.716Z,4.83
2018-05-09T19:03:04.800Z,4.70
2018-05-09T19:05:15.945Z,4.37
2018-05-09T19:07:27.065Z,3.60
2018-05-09T19:09:38.196Z,3.37
2018-05-09T19:11:49.339Z,3.70
2018-05-09T19:14:00.614Z,3.80
2018-05-09T19:16:11.667Z,3.77
2018-05-09T19:18:22.790Z,4.33
2018-05-09T19:20:33.893Z,3.60
2018-05-09T19:22:45.026Z,3.90
2018-05-09T19:24:56.215Z,3.70
2018-05-09T19:27:07.339Z,3.30
2018-05-09T19:29:18.598Z,3.80
2018-05-09T19:31:29.697Z,3.63
2018-05-09T19:33:40.762Z,3.73
2018-05-09T19:35:51.925Z,3.70
2018-05-09T19:38:03.031Z,3.27
2018-05-09T19:40:14.146Z,3.33
2018-05-09T19:42:25.202Z,3.20
2018-05-09T19:44:36.334Z,3.67
2018-05-09T19:46:48.174Z,3.47
2018-05-09T19:48:59.284Z,3.83
2018-05-09T19:51:10.436Z,3.13
2018-05-09T19:53:21.515Z,3.43
2018-05-09T19:55:32.770Z,3.67
2018-05-09T19:57:43.991Z,3.40
2018-05-09T19:59:55.100Z,3.10
2018-05-09T20:02:06.411Z,3.10
2018-05-09T20:04:17.594Z,3.47
2018-05-09T20:06:28.720Z,3.97
2018-05-09T20:08:39.868Z,3.20
2018-05-09T20:10:50.950Z,3.30
2018-05-09T20:13:02.069Z,3.43
2018-05-09T20:15:13.175Z,3.43
2018-05-09T20:17:24.316Z,3.97
2018-05-09T20:19:35.397Z,3.90
2018-05-09T20:21:46.628Z,3.40
2018-05-09T20:23:57.718Z,3.80
2018-05-09T20:26:08.902Z,4.10
2018-05-09T20:28:20.015Z,3.70
2018-05-09T20:30:36.939Z,4.00
2018-05-09T20:32:48.108Z,4.23
2018-05-09T20:34:59.207Z,4.40
2018-05-09T20:37:10.356Z,4.60
2018-05-09T20:39:21.439Z,4.00
2018-05-09T20:41:32.589Z,5.10
2018-05-09T20:43:43.690Z,4.97
2018-05-09T20:45:54.880Z,5.03
2018-05-09T20:48:06.069Z,5.20
2018-05-09T20:50:17.135Z,4.50
2018-05-09T20:52:28.255Z,4.10
2018-05-09T20:54:39.350Z,5.07
2018-05-09T20:56:50.487Z,4.50
2018-05-09T20:59:01.653Z,4.30
2018-05-09T21:01:24.806Z,5.60
2018-05-09T21:03:35.898Z,3.93
2018-05-09T21:05:46.966Z,4.90
2018-05-09T21:07:58.272Z,4.87
2018-05-09T21:10:09.428Z,4.60
2018-05-09T21:12:20.634Z,4.07
2018-05-09T21:14:31.747Z,4.33
2018-05-09T21:16:42.835Z,4.23
2018-05-09T21:18:53.989Z,4.47
2018-05-09T21:21:05.079Z,4.57
2018-05-09T21:23:16.199Z,4.57
2018-05-09T21:25:27.304Z,4.67
2018-05-09T21:27:38.449Z,5.00
2018-05-09T21:29:49.522Z,4.97
2018-05-09T21:32:00.666Z,3.80
2018-05-09T21:34:11.755Z,5.40
2018-05-09T21:36:22.835Z,5.13
2018-05-09T21:38:33.926Z,4.90
2018-05-09T21:40:45.068Z,4.80
2018-05-09T21:42:56.147Z,5.60
2018-05-09T21:45:07.282Z,5.20
2018-05-09T21:47:18.432Z,4.93
2018-05-09T21:49:29.707Z,5.07
2018-05-09T21:51:40.807Z,6.03
2018-05-09T21:53:51.890Z,5.73
2018-05-09T21:56:03.260Z,5.40
2018-05-09T21:58:14.231Z,5.40
2018-05-09T22:00:25.334Z,5.90
2018-05-09T22:02:36.453Z,6.17
2018-05-09T22:04:47.539Z,5.93
2018-05-09T22:06:58.660Z,4.97
2018-05-09T22:09:09.709Z,5.90
2018-05-09T22:11:20.867Z,6.20
2018-05-09T22:13:31.972Z,6.90
2018-05-09T22:15:43.066Z,6.23
2018-05-09T22:17:54.189Z,6.10
2018-05-09T22:20:05.271Z,5.97
2018-05-09T22:22:16.420Z,6.40
2018-05-09T22:24:27.507Z,6.87
2018-05-09T22:26:38.893Z,7.03
2018-05-09T22:28:49.964Z,6.37
2018-05-09T22:31:01.110Z,6.67
2018-05-09T22:33:12.282Z,6.90
2018-05-09T22:35:23.405Z,6.50
2018-05-09T22:37:34.535Z,7.00
2018-05-09T22:39:45.651Z,7.10
2018-05-09T22:41:56.689Z,6.73
2018-05-09T22:44:07.847Z,6.30
2018-05-09T22:46:19.029Z,6.67
2018-05-09T22:48:30.145Z,6.73
2018-05-09T22:50:41.272Z,7.30
2018-05-09T22:52:52.375Z,7.20
2018-05-09T22:55:03.560Z,7.20
2018-05-09T22:57:14.547Z,7.10
2018-05-09T22:59:25.689Z,6.00
2018-05-09T23:01:36.795Z,6.50
2018-05-09T23:03:47.893Z,6.03
2018-05-09T23:05:59.062Z,6.77
2018-05-09T23:08:10.163Z,6.73
2018-05-09T23:10:21.271Z,7.13
2018-05-09T23:12:32.341Z,6.50
2018-05-09T23:14:43.457Z,6.97
2018-05-09T23:16:54.512Z,6.83
2018-05-09T23:19:05.611Z,5.87
2018-05-09T23:21:16.753Z,6.00
2018-05-09T23:23:27.871Z,6.00
2018-05-09T23:25:38.981Z,6.07
2018-05-09T23:27:50.088Z,6.23
2018-05-09T23:30:01.261Z,5.70
2018-05-09T23:32:12.358Z,6.17
2018-05-09T23:34:23.456Z,5.87
2018-05-09T23:36:34.555Z,5.90
2018-05-09T23:38:45.682Z,6.03
2018-05-09T23:40:56.814Z,5.93
2018-05-09T23:43:07.974Z,6.37
2018-05-09T23:45:19.153Z,6.20
2018-05-09T23:47:30.269Z,6.80
2018-05-09T23:49:41.318Z,6.10
2018-05-09T23:51:52.410Z,6.53
2018-05-09T23:54:03.491Z,6.30
2018-05-09T23:56:14.550Z,5.50
2018-05-09T23:58:25.642Z,6.57
